Terminal Aerodrome Forecast
Issued by NWS Twin Cities, MN

Home | Current Version | Previous Version | Text Only | Print | Product List | Glossary Off
Versions: 1 2 3 4 5 6 7 8 9 10 11 12 13 14 15 16 17 18 19 20 21 22 23 24 25 26 27 28 29 30 31

102
FTUS43 KMPX 182337
TAFMSP
TAF
KMSP 182337Z 1900/2006 20012KT P6SM BKN100
     FM190200 28010KT P6SM OVC050
     FM190600 34010KT P6SM OVC015
     FM191200 01016KT P6SM VCSH OVC015 PROB30 1912/1915 3SM -SN BR
     FM191500 02015G23KT 2SM -SN BR OVC015
     FM200000 03013KT 4SM -SN OVC012=

USA.gov is the U.S. government's official web portal to all federal, state and local government web resources and services.